< < Back
Terminal Aerodrome Forecast


Current Version              Previous Versions:   1  2  3  4  5  6  7  8  9  

Terminal Aerodrome Forecast

000
FTUS42 KJAX 252019 AAB
TAFGNV
TAF AMD
KGNV 252019Z 2520/2618 23012G18KT P6SM SCT050
     FM260200 22007KT P6SM SCT025 BKN090 OVC200=

Latest METAR

234
SAUS70 KWBC 252100 RRL
MTRGNV
METAR KGNV 252053Z 24017G23KT 10SM FEW037 FEW047 29/20 A2979 RMK AO2
SLP087 T02890200 58024 $


USA.gov is the U.S. government's official web portal to all federal, state and local government web resources and services.